sensor_id;sensor_type;location;lat;lon;timestamp;P1;durP1;ratioP1;P2;durP2;ratioP2
56201;SDS011;42117;50.360;3.508;2023-04-08T00:01:08;8.07;;;3.50;;
56201;SDS011;42117;50.360;3.508;2023-04-08T00:03:34;6.57;;;3.47;;
56201;SDS011;42117;50.360;3.508;2023-04-08T00:06:00;4.57;;;3.28;;
56201;SDS011;42117;50.360;3.508;2023-04-08T00:08:27;6.80;;;3.70;;
56201;SDS011;42117;50.360;3.508;2023-04-08T00:10:53;7.88;;;3.28;;
56201;SDS011;42117;50.360;3.508;2023-04-08T00:13:20;5.90;;;3.10;;
56201;SDS011;42117;50.360;3.508;2023-04-08T00:15:46;7.72;;;2.75;;
56201;SDS011;42117;50.360;3.508;2023-04-08T00:18:15;5.82;;;3.30;;
56201;SDS011;42117;50.360;3.508;2023-04-08T00:20:42;8.10;;;3.05;;
56201;SDS011;42117;50.360;3.508;2023-04-08T00:23:08;6.70;;;2.90;;
56201;SDS011;42117;50.360;3.508;2023-04-08T00:25:34;4.43;;;3.28;;
56201;SDS011;42117;50.360;3.508;2023-04-08T00:28:00;5.55;;;3.20;;
56201;SDS011;42117;50.360;3.508;2023-04-08T00:30:26;6.43;;;2.92;;
56201;SDS011;42117;50.360;3.508;2023-04-08T00:32:52;6.55;;;3.03;;
56201;SDS011;42117;50.360;3.508;2023-04-08T00:35:18;3.38;;;2.67;;
56201;SDS011;42117;50.360;3.508;2023-04-08T00:37:44;5.65;;;3.17;;
56201;SDS011;42117;50.360;3.508;2023-04-08T00:40:10;5.45;;;2.97;;
56201;SDS011;42117;50.360;3.508;2023-04-08T00:42:37;6.68;;;3.10;;
56201;SDS011;42117;50.360;3.508;2023-04-08T00:45:03;4.95;;;2.70;;
56201;SDS011;42117;50.360;3.508;2023-04-08T00:47:29;6.60;;;3.38;;
56201;SDS011;42117;50.360;3.508;2023-04-08T00:49:55;8.20;;;3.60;;
56201;SDS011;42117;50.360;3.508;2023-04-08T00:52:21;3.83;;;2.80;;
56201;SDS011;42117;50.360;3.508;2023-04-08T00:54:47;5.43;;;2.90;;
56201;SDS011;42117;50.360;3.508;2023-04-08T00:57:13;4.88;;;3.28;;
56201;SDS011;42117;50.360;3.508;2023-04-08T00:59:40;8.38;;;3.50;;
56201;SDS011;42117;50.360;3.508;2023-04-08T01:09:34;6.68;;;3.47;;
56201;SDS011;42117;50.360;3.508;2023-04-08T01:12:02;3.63;;;3.00;;
56201;SDS011;42117;50.360;3.508;2023-04-08T01:14:30;4.35;;;2.80;;
56201;SDS011;42117;50.360;3.508;2023-04-08T01:16:56;4.65;;;3.28;;
56201;SDS011;42117;50.360;3.508;2023-04-08T01:19:26;8.15;;;3.00;;
56201;SDS011;42117;50.360;3.508;2023-04-08T01:21:52;6.97;;;2.60;;
56201;SDS011;42117;50.360;3.508;2023-04-08T01:24:25;4.43;;;2.70;;
56201;SDS011;42117;50.360;3.508;2023-04-08T01:26:51;4.15;;;2.80;;
56201;SDS011;42117;50.360;3.508;2023-04-08T01:29:17;3.13;;;2.45;;
56201;SDS011;42117;50.360;3.508;2023-04-08T01:31:44;5.53;;;2.60;;
56201;SDS011;42117;50.360;3.508;2023-04-08T01:34:11;6.45;;;2.50;;
56201;SDS011;42117;50.360;3.508;2023-04-08T01:36:38;4.70;;;2.97;;
56201;SDS011;42117;50.360;3.508;2023-04-08T01:39:05;4.22;;;2.70;;
56201;SDS011;42117;50.360;3.508;2023-04-08T01:41:32;6.60;;;2.47;;
56201;SDS011;42117;50.360;3.508;2023-04-08T01:43:58;5.22;;;2.55;;
56201;SDS011;42117;50.360;3.508;2023-04-08T01:46:25;5.70;;;2.60;;
56201;SDS011;42117;50.360;3.508;2023-04-08T01:48:51;4.57;;;2.97;;
56201;SDS011;42117;50.360;3.508;2023-04-08T01:51:19;6.78;;;3.08;;
56201;SDS011;42117;50.360;3.508;2023-04-08T01:53:45;3.45;;;2.45;;
56201;SDS011;42117;50.360;3.508;2023-04-08T01:56:12;7.00;;;3.60;;
56201;SDS011;42117;50.360;3.508;2023-04-08T01:58:44;3.13;;;2.83;;
56201;SDS011;42117;50.360;3.508;2023-04-08T02:01:12;5.25;;;2.83;;
56201;SDS011;42117;50.360;3.508;2023-04-08T02:03:39;4.95;;;2.55;;
56201;SDS011;42117;50.360;3.508;2023-04-08T02:06:06;11.40;;;3.10;;
56201;SDS011;42117;50.360;3.508;2023-04-08T02:08:33;5.03;;;2.70;;
56201;SDS011;42117;50.360;3.508;2023-04-08T02:11:00;4.25;;;2.90;;
56201;SDS011;42117;50.360;3.508;2023-04-08T02:13:26;2.85;;;2.45;;
56201;SDS011;42117;50.360;3.508;2023-04-08T02:15:56;5.80;;;2.60;;
56201;SDS011;42117;50.360;3.508;2023-04-08T02:18:25;6.28;;;3.25;;
56201;SDS011;42117;50.360;3.508;2023-04-08T02:21:15;2.60;;;2.40;;
56201;SDS011;42117;50.360;3.508;2023-04-08T02:23:41;5.88;;;2.65;;
56201;SDS011;42117;50.360;3.508;2023-04-08T02:26:13;6.70;;;2.67;;
56201;SDS011;42117;50.360;3.508;2023-04-08T02:28:40;4.80;;;2.80;;
56201;SDS011;42117;50.360;3.508;2023-04-08T02:31:08;2.78;;;2.50;;
56201;SDS011;42117;50.360;3.508;2023-04-08T02:33:37;4.95;;;2.33;;
56201;SDS011;42117;50.360;3.508;2023-04-08T02:36:04;2.85;;;2.20;;
56201;SDS011;42117;50.360;3.508;2023-04-08T02:38:30;3.97;;;2.30;;
56201;SDS011;42117;50.360;3.508;2023-04-08T02:40:56;5.78;;;2.50;;
56201;SDS011;42117;50.360;3.508;2023-04-08T02:43:23;5.88;;;2.47;;
56201;SDS011;42117;50.360;3.508;2023-04-08T02:45:55;3.67;;;2.42;;
56201;SDS011;42117;50.360;3.508;2023-04-08T02:48:21;2.90;;;2.30;;
56201;SDS011;42117;50.360;3.508;2023-04-08T02:50:47;6.05;;;2.50;;
56201;SDS011;42117;50.360;3.508;2023-04-08T02:53:13;3.88;;;2.50;;
56201;SDS011;42117;50.360;3.508;2023-04-08T02:55:40;5.20;;;2.53;;
56201;SDS011;42117;50.360;3.508;2023-04-08T02:58:06;5.03;;;2.20;;
56201;SDS011;42117;50.360;3.508;2023-04-08T03:00:32;4.57;;;2.55;;
56201;SDS011;42117;50.360;3.508;2023-04-08T03:02:58;4.57;;;2.47;;
56201;SDS011;42117;50.360;3.508;2023-04-08T03:05:24;7.10;;;2.20;;
56201;SDS011;42117;50.360;3.508;2023-04-08T03:07:50;4.20;;;2.30;;
56201;SDS011;42117;50.360;3.508;2023-04-08T03:10:16;4.77;;;2.57;;
56201;SDS011;42117;50.360;3.508;2023-04-08T03:12:42;5.50;;;2.27;;
56201;SDS011;42117;50.360;3.508;2023-04-08T03:15:09;5.07;;;2.40;;
56201;SDS011;42117;50.360;3.508;2023-04-08T03:17:35;4.28;;;2.15;;
56201;SDS011;42117;50.360;3.508;2023-04-08T03:20:01;4.30;;;2.15;;
56201;SDS011;42117;50.360;3.508;2023-04-08T03:22:30;2.60;;;2.40;;
56201;SDS011;42117;50.360;3.508;2023-04-08T03:24:56;5.70;;;2.40;;
56201;SDS011;42117;50.360;3.508;2023-04-08T03:27:22;5.53;;;2.38;;
56201;SDS011;42117;50.360;3.508;2023-04-08T03:29:48;2.80;;;2.10;;
56201;SDS011;42117;50.360;3.508;2023-04-08T03:32:14;5.35;;;2.47;;
56201;SDS011;42117;50.360;3.508;2023-04-08T03:34:40;4.22;;;2.53;;
56201;SDS011;42117;50.360;3.508;2023-04-08T03:37:06;3.85;;;2.60;;
56201;SDS011;42117;50.360;3.508;2023-04-08T03:39:32;4.47;;;2.20;;
56201;SDS011;42117;50.360;3.508;2023-04-08T03:41:58;6.13;;;2.42;;
56201;SDS011;42117;50.360;3.508;2023-04-08T03:44:25;4.85;;;2.78;;
56201;SDS011;42117;50.360;3.508;2023-04-08T03:46:51;6.63;;;2.47;;
56201;SDS011;42117;50.360;3.508;2023-04-08T03:49:17;5.18;;;2.60;;
56201;SDS011;42117;50.360;3.508;2023-04-08T03:51:43;4.82;;;2.53;;
56201;SDS011;42117;50.360;3.508;2023-04-08T03:54:09;5.50;;;2.40;;
56201;SDS011;42117;50.360;3.508;2023-04-08T03:56:35;5.53;;;3.05;;
56201;SDS011;42117;50.360;3.508;2023-04-08T03:59:01;6.80;;;3.03;;
56201;SDS011;42117;50.360;3.508;2023-04-08T04:01:27;5.03;;;3.35;;
56201;SDS011;42117;50.360;3.508;2023-04-08T04:03:56;5.35;;;3.55;;
56201;SDS011;42117;50.360;3.508;2023-04-08T04:06:22;6.88;;;3.72;;
56201;SDS011;42117;50.360;3.508;2023-04-08T04:08:48;6.32;;;3.75;;
56201;SDS011;42117;50.360;3.508;2023-04-08T04:11:15;6.47;;;4.00;;
56201;SDS011;42117;50.360;3.508;2023-04-08T04:13:41;9.73;;;4.15;;
56201;SDS011;42117;50.360;3.508;2023-04-08T04:16:07;6.15;;;3.85;;
56201;SDS011;42117;50.360;3.508;2023-04-08T04:18:32;7.28;;;3.78;;
56201;SDS011;42117;50.360;3.508;2023-04-08T04:20:58;7.72;;;4.13;;
56201;SDS011;42117;50.360;3.508;2023-04-08T04:23:25;12.25;;;4.00;;
56201;SDS011;42117;50.360;3.508;2023-04-08T04:25:50;5.63;;;4.00;;
56201;SDS011;42117;50.360;3.508;2023-04-08T04:28:16;6.25;;;3.70;;
56201;SDS011;42117;50.360;3.508;2023-04-08T04:30:42;9.55;;;4.13;;
56201;SDS011;42117;50.360;3.508;2023-04-08T04:33:09;6.10;;;3.88;;
56201;SDS011;42117;50.360;3.508;2023-04-08T04:35:38;8.52;;;3.97;;
56201;SDS011;42117;50.360;3.508;2023-04-08T04:38:04;6.30;;;4.28;;
56201;SDS011;42117;50.360;3.508;2023-04-08T04:40:36;8.43;;;4.85;;
56201;SDS011;42117;50.360;3.508;2023-04-08T04:43:03;6.15;;;4.68;;
56201;SDS011;42117;50.360;3.508;2023-04-08T04:45:29;9.47;;;4.57;;
56201;SDS011;42117;50.360;3.508;2023-04-08T04:47:55;8.07;;;4.80;;
56201;SDS011;42117;50.360;3.508;2023-04-08T04:50:21;7.18;;;4.68;;
56201;SDS011;42117;50.360;3.508;2023-04-08T04:52:47;8.80;;;5.40;;
56201;SDS011;42117;50.360;3.508;2023-04-08T04:55:13;9.57;;;5.40;;
56201;SDS011;42117;50.360;3.508;2023-04-08T04:57:40;8.67;;;5.40;;
56201;SDS011;42117;50.360;3.508;2023-04-08T05:00:06;13.98;;;5.80;;
56201;SDS011;42117;50.360;3.508;2023-04-08T05:02:32;14.13;;;6.28;;
56201;SDS011;42117;50.360;3.508;2023-04-08T05:04:58;9.35;;;5.88;;
56201;SDS011;42117;50.360;3.508;2023-04-08T05:07:24;8.95;;;6.43;;
56201;SDS011;42117;50.360;3.508;2023-04-08T05:09:50;12.68;;;6.70;;
56201;SDS011;42117;50.360;3.508;2023-04-08T05:12:16;10.13;;;6.30;;
56201;SDS011;42117;50.360;3.508;2023-04-08T05:14:44;13.20;;;6.70;;
56201;SDS011;42117;50.360;3.508;2023-04-08T05:17:10;12.53;;;7.07;;
56201;SDS011;42117;50.360;3.508;2023-04-08T05:19:36;16.25;;;7.43;;
56201;SDS011;42117;50.360;3.508;2023-04-08T05:22:02;8.80;;;6.00;;
56201;SDS011;42117;50.360;3.508;2023-04-08T05:24:28;12.80;;;6.90;;
56201;SDS011;42117;50.360;3.508;2023-04-08T05:26:54;12.77;;;7.30;;
56201;SDS011;42117;50.360;3.508;2023-04-08T05:29:21;13.57;;;7.35;;
56201;SDS011;42117;50.360;3.508;2023-04-08T05:31:47;14.02;;;7.82;;
56201;SDS011;42117;50.360;3.508;2023-04-08T05:34:14;14.52;;;10.93;;
56201;SDS011;42117;50.360;3.508;2023-04-08T05:36:43;11.45;;;7.40;;
56201;SDS011;42117;50.360;3.508;2023-04-08T05:39:09;15.52;;;7.22;;
56201;SDS011;42117;50.360;3.508;2023-04-08T05:41:35;17.50;;;7.95;;
56201;SDS011;42117;50.360;3.508;2023-04-08T05:44:01;11.52;;;7.90;;
56201;SDS011;42117;50.360;3.508;2023-04-08T05:46:27;14.30;;;7.78;;
56201;SDS011;42117;50.360;3.508;2023-04-08T05:48:53;11.80;;;7.38;;
56201;SDS011;42117;50.360;3.508;2023-04-08T05:51:19;14.00;;;7.70;;
56201;SDS011;42117;50.360;3.508;2023-04-08T05:53:45;19.05;;;8.45;;
56201;SDS011;42117;50.360;3.508;2023-04-08T05:56:11;11.98;;;7.32;;
56201;SDS011;42117;50.360;3.508;2023-04-08T05:58:37;13.27;;;7.55;;
56201;SDS011;42117;50.360;3.508;2023-04-08T06:01:03;14.00;;;8.23;;
56201;SDS011;42117;50.360;3.508;2023-04-08T06:03:31;13.80;;;7.97;;
56201;SDS011;42117;50.360;3.508;2023-04-08T06:05:57;10.88;;;7.35;;
56201;SDS011;42117;50.360;3.508;2023-04-08T06:08:23;13.88;;;8.27;;
56201;SDS011;42117;50.360;3.508;2023-04-08T06:10:49;14.40;;;7.90;;
56201;SDS011;42117;50.360;3.508;2023-04-08T06:13:15;18.98;;;8.50;;
56201;SDS011;42117;50.360;3.508;2023-04-08T06:15:42;16.50;;;8.73;;
56201;SDS011;42117;50.360;3.508;2023-04-08T06:18:08;18.60;;;7.32;;
56201;SDS011;42117;50.360;3.508;2023-04-08T06:20:36;14.00;;;7.53;;
56201;SDS011;42117;50.360;3.508;2023-04-08T06:23:02;13.45;;;8.45;;
56201;SDS011;42117;50.360;3.508;2023-04-08T06:25:28;13.20;;;8.10;;
56201;SDS011;42117;50.360;3.508;2023-04-08T06:27:54;13.80;;;7.65;;
56201;SDS011;42117;50.360;3.508;2023-04-08T06:30:20;13.40;;;8.30;;
56201;SDS011;42117;50.360;3.508;2023-04-08T06:32:46;15.85;;;8.65;;
56201;SDS011;42117;50.360;3.508;2023-04-08T06:35:12;11.93;;;8.05;;
56201;SDS011;42117;50.360;3.508;2023-04-08T06:37:38;15.32;;;8.13;;
56201;SDS011;42117;50.360;3.508;2023-04-08T06:40:05;14.35;;;7.70;;
56201;SDS011;42117;50.360;3.508;2023-04-08T06:42:31;18.97;;;8.37;;
56201;SDS011;42117;50.360;3.508;2023-04-08T06:44:57;14.33;;;8.33;;
56201;SDS011;42117;50.360;3.508;2023-04-08T06:47:23;12.15;;;7.93;;
56201;SDS011;42117;50.360;3.508;2023-04-08T06:49:49;12.57;;;7.25;;
56201;SDS011;42117;50.360;3.508;2023-04-08T06:52:15;15.43;;;6.88;;
56201;SDS011;42117;50.360;3.508;2023-04-08T06:54:41;12.68;;;7.25;;
56201;SDS011;42117;50.360;3.508;2023-04-08T06:57:07;19.52;;;7.90;;
56201;SDS011;42117;50.360;3.508;2023-04-08T06:59:33;16.20;;;7.40;;
56201;SDS011;42117;50.360;3.508;2023-04-08T07:01:59;13.90;;;7.53;;
56201;SDS011;42117;50.360;3.508;2023-04-08T07:04:25;13.07;;;6.80;;
56201;SDS011;42117;50.360;3.508;2023-04-08T07:06:51;18.83;;;7.20;;
56201;SDS011;42117;50.360;3.508;2023-04-08T07:09:17;18.02;;;7.32;;
56201;SDS011;42117;50.360;3.508;2023-04-08T07:11:43;9.85;;;6.47;;
56201;SDS011;42117;50.360;3.508;2023-04-08T07:14:10;13.85;;;6.75;;
56201;SDS011;42117;50.360;3.508;2023-04-08T07:16:36;10.38;;;6.45;;
56201;SDS011;42117;50.360;3.508;2023-04-08T07:19:02;10.38;;;6.10;;
56201;SDS011;42117;50.360;3.508;2023-04-08T07:21:28;13.18;;;6.85;;
56201;SDS011;42117;50.360;3.508;2023-04-08T07:23:55;16.17;;;7.03;;
56201;SDS011;42117;50.360;3.508;2023-04-08T07:26:21;12.97;;;6.70;;
56201;SDS011;42117;50.360;3.508;2023-04-08T07:28:47;15.48;;;7.97;;
56201;SDS011;42117;50.360;3.508;2023-04-08T07:31:17;14.20;;;7.38;;
56201;SDS011;42117;50.360;3.508;2023-04-08T07:33:44;11.32;;;6.40;;
56201;SDS011;42117;50.360;3.508;2023-04-08T07:36:10;14.05;;;7.18;;
56201;SDS011;42117;50.360;3.508;2023-04-08T07:38:37;13.43;;;6.70;;
56201;SDS011;42117;50.360;3.508;2023-04-08T07:41:03;12.40;;;6.60;;
56201;SDS011;42117;50.360;3.508;2023-04-08T07:43:30;13.57;;;6.68;;
56201;SDS011;42117;50.360;3.508;2023-04-08T07:46:02;10.55;;;6.03;;
56201;SDS011;42117;50.360;3.508;2023-04-08T07:48:29;12.00;;;6.78;;
56201;SDS011;42117;50.360;3.508;2023-04-08T07:50:55;9.02;;;6.30;;
56201;SDS011;42117;50.360;3.508;2023-04-08T07:53:21;10.00;;;6.00;;
56201;SDS011;42117;50.360;3.508;2023-04-08T07:55:49;13.27;;;6.75;;
56201;SDS011;42117;50.360;3.508;2023-04-08T07:58:15;12.88;;;7.20;;
56201;SDS011;42117;50.360;3.508;2023-04-08T08:00:41;10.00;;;5.78;;
56201;SDS011;42117;50.360;3.508;2023-04-08T08:03:07;8.93;;;5.97;;
56201;SDS011;42117;50.360;3.508;2023-04-08T08:05:34;11.70;;;6.60;;
56201;SDS011;42117;50.360;3.508;2023-04-08T08:08:01;12.27;;;6.40;;
56201;SDS011;42117;50.360;3.508;2023-04-08T08:10:27;10.25;;;6.55;;
56201;SDS011;42117;50.360;3.508;2023-04-08T08:12:53;10.77;;;6.43;;
56201;SDS011;42117;50.360;3.508;2023-04-08T08:15:19;10.48;;;5.78;;
56201;SDS011;42117;50.360;3.508;2023-04-08T08:17:45;15.70;;;6.97;;
56201;SDS011;42117;50.360;3.508;2023-04-08T08:20:11;12.38;;;5.80;;
56201;SDS011;42117;50.360;3.508;2023-04-08T08:22:37;13.20;;;6.55;;
56201;SDS011;42117;50.360;3.508;2023-04-08T08:25:03;8.27;;;5.47;;
56201;SDS011;42117;50.360;3.508;2023-04-08T08:27:30;9.50;;;6.03;;
56201;SDS011;42117;50.360;3.508;2023-04-08T08:29:58;12.23;;;6.05;;
56201;SDS011;42117;50.360;3.508;2023-04-08T08:32:24;10.93;;;6.28;;
56201;SDS011;42117;50.360;3.508;2023-04-08T08:34:50;10.85;;;5.60;;
56201;SDS011;42117;50.360;3.508;2023-04-08T08:37:16;11.30;;;6.00;;
56201;SDS011;42117;50.360;3.508;2023-04-08T08:39:42;10.65;;;5.90;;
56201;SDS011;42117;50.360;3.508;2023-04-08T08:42:18;9.57;;;5.25;;
56201;SDS011;42117;50.360;3.508;2023-04-08T08:44:45;7.53;;;4.63;;
56201;SDS011;42117;50.360;3.508;2023-04-08T08:47:11;8.50;;;5.13;;
56201;SDS011;42117;50.360;3.508;2023-04-08T08:49:37;7.72;;;5.20;;
56201;SDS011;42117;50.360;3.508;2023-04-08T08:52:03;10.13;;;4.90;;
56201;SDS011;42117;50.360;3.508;2023-04-08T08:54:30;8.55;;;5.20;;
56201;SDS011;42117;50.360;3.508;2023-04-08T08:56:56;12.15;;;5.18;;
56201;SDS011;42117;50.360;3.508;2023-04-08T08:59:22;6.93;;;4.75;;
56201;SDS011;42117;50.360;3.508;2023-04-08T09:01:48;7.88;;;4.80;;
56201;SDS011;42117;50.360;3.508;2023-04-08T09:04:17;7.53;;;4.43;;
56201;SDS011;42117;50.360;3.508;2023-04-08T09:06:44;8.93;;;4.78;;
56201;SDS011;42117;50.360;3.508;2023-04-08T09:09:11;6.97;;;4.80;;
56201;SDS011;42117;50.360;3.508;2023-04-08T09:11:38;7.00;;;4.72;;
56201;SDS011;42117;50.360;3.508;2023-04-08T09:14:05;6.90;;;4.13;;
56201;SDS011;42117;50.360;3.508;2023-04-08T09:16:31;7.47;;;4.72;;
56201;SDS011;42117;50.360;3.508;2023-04-08T09:19:18;9.32;;;4.50;;
56201;SDS011;42117;50.360;3.508;2023-04-08T09:21:44;7.15;;;4.45;;
56201;SDS011;42117;50.360;3.508;2023-04-08T09:24:26;6.82;;;4.50;;
56201;SDS011;42117;50.360;3.508;2023-04-08T09:26:52;9.02;;;5.03;;
56201;SDS011;42117;50.360;3.508;2023-04-08T09:29:18;7.97;;;4.30;;
56201;SDS011;42117;50.360;3.508;2023-04-08T09:31:48;7.28;;;5.00;;
56201;SDS011;42117;50.360;3.508;2023-04-08T09:34:18;10.68;;;5.15;;
56201;SDS011;42117;50.360;3.508;2023-04-08T09:36:45;9.70;;;4.78;;
56201;SDS011;42117;50.360;3.508;2023-04-08T09:39:13;8.18;;;4.22;;
56201;SDS011;42117;50.360;3.508;2023-04-08T09:41:39;9.60;;;5.15;;
56201;SDS011;42117;50.360;3.508;2023-04-08T09:44:06;7.57;;;4.17;;
56201;SDS011;42117;50.360;3.508;2023-04-08T09:49:22;5.13;;;4.20;;
56201;SDS011;42117;50.360;3.508;2023-04-08T09:51:56;7.22;;;4.40;;
56201;SDS011;42117;50.360;3.508;2023-04-08T09:54:29;5.63;;;4.20;;
56201;SDS011;42117;50.360;3.508;2023-04-08T09:57:04;5.90;;;4.35;;
56201;SDS011;42117;50.360;3.508;2023-04-08T09:59:33;12.15;;;5.05;;
56201;SDS011;42117;50.360;3.508;2023-04-08T10:02:04;8.95;;;4.38;;
56201;SDS011;42117;50.360;3.508;2023-04-08T10:04:31;6.53;;;4.20;;
56201;SDS011;42117;50.360;3.508;2023-04-08T10:07:02;7.50;;;4.67;;
56201;SDS011;42117;50.360;3.508;2023-04-08T10:09:28;5.22;;;4.35;;
56201;SDS011;42117;50.360;3.508;2023-04-08T10:11:55;5.50;;;3.72;;
56201;SDS011;42117;50.360;3.508;2023-04-08T10:14:21;7.43;;;3.83;;
56201;SDS011;42117;50.360;3.508;2023-04-08T10:16:47;5.95;;;3.97;;
56201;SDS011;42117;50.360;3.508;2023-04-08T10:21:58;8.93;;;3.70;;
56201;SDS011;42117;50.360;3.508;2023-04-08T10:24:24;6.57;;;3.30;;
56201;SDS011;42117;50.360;3.508;2023-04-08T10:26:50;5.50;;;3.38;;
56201;SDS011;42117;50.360;3.508;2023-04-08T10:31:42;6.83;;;3.40;;
56201;SDS011;42117;50.360;3.508;2023-04-08T10:34:21;4.13;;;3.10;;
56201;SDS011;42117;50.360;3.508;2023-04-08T10:36:48;6.15;;;3.97;;
56201;SDS011;42117;50.360;3.508;2023-04-08T10:39:15;5.65;;;3.42;;
56201;SDS011;42117;50.360;3.508;2023-04-08T10:41:45;5.32;;;2.90;;
56201;SDS011;42117;50.360;3.508;2023-04-08T10:44:22;6.63;;;3.55;;
56201;SDS011;42117;50.360;3.508;2023-04-08T10:46:48;5.57;;;3.95;;
56201;SDS011;42117;50.360;3.508;2023-04-08T10:49:15;5.20;;;3.65;;
56201;SDS011;42117;50.360;3.508;2023-04-08T10:51:42;4.13;;;3.60;;
56201;SDS011;42117;50.360;3.508;2023-04-08T10:54:09;5.00;;;3.72;;
56201;SDS011;42117;50.360;3.508;2023-04-08T10:56:35;5.97;;;3.90;;
56201;SDS011;42117;50.360;3.508;2023-04-08T10:59:01;3.77;;;3.47;;
56201;SDS011;42117;50.360;3.508;2023-04-08T11:01:36;7.77;;;3.73;;
56201;SDS011;42117;50.360;3.508;2023-04-08T11:04:06;6.80;;;4.20;;
56201;SDS011;42117;50.360;3.508;2023-04-08T11:06:32;5.23;;;4.07;;
56201;SDS011;42117;50.360;3.508;2023-04-08T11:09:02;7.82;;;4.28;;
56201;SDS011;42117;50.360;3.508;2023-04-08T11:11:29;7.40;;;4.20;;
56201;SDS011;42117;50.360;3.508;2023-04-08T11:13:55;5.25;;;3.97;;
56201;SDS011;42117;50.360;3.508;2023-04-08T11:16:21;5.50;;;3.90;;
56201;SDS011;42117;50.360;3.508;2023-04-08T11:18:48;8.38;;;4.18;;
56201;SDS011;42117;50.360;3.508;2023-04-08T11:21:15;5.15;;;4.28;;
56201;SDS011;42117;50.360;3.508;2023-04-08T11:23:41;6.07;;;4.38;;
56201;SDS011;42117;50.360;3.508;2023-04-08T11:26:07;7.40;;;4.15;;
56201;SDS011;42117;50.360;3.508;2023-04-08T11:28:33;4.70;;;3.80;;
56201;SDS011;42117;50.360;3.508;2023-04-08T11:31:00;8.50;;;4.78;;
56201;SDS011;42117;50.360;3.508;2023-04-08T11:33:31;4.72;;;3.53;;
56201;SDS011;42117;50.360;3.508;2023-04-08T11:35:59;6.63;;;3.80;;
56201;SDS011;42117;50.360;3.508;2023-04-08T11:38:26;6.70;;;3.67;;
56201;SDS011;42117;50.360;3.508;2023-04-08T11:40:52;4.85;;;3.58;;
56201;SDS011;42117;50.360;3.508;2023-04-08T11:43:18;4.50;;;2.92;;
56201;SDS011;42117;50.360;3.508;2023-04-08T11:45:45;5.97;;;3.50;;
56201;SDS011;42117;50.360;3.508;2023-04-08T11:48:11;3.97;;;3.58;;
56201;SDS011;42117;50.360;3.508;2023-04-08T11:50:38;8.00;;;4.47;;
56201;SDS011;42117;50.360;3.508;2023-04-08T11:53:14;5.40;;;3.53;;
56201;SDS011;42117;50.360;3.508;2023-04-08T11:55:41;5.22;;;3.58;;
56201;SDS011;42117;50.360;3.508;2023-04-08T11:58:07;6.07;;;3.28;;
56201;SDS011;42117;50.360;3.508;2023-04-08T12:00:33;4.68;;;3.10;;
56201;SDS011;42117;50.360;3.508;2023-04-08T12:02:59;5.13;;;3.70;;
56201;SDS011;42117;50.360;3.508;2023-04-08T12:05:25;5.15;;;3.72;;
56201;SDS011;42117;50.360;3.508;2023-04-08T12:07:51;9.00;;;4.10;;
56201;SDS011;42117;50.360;3.508;2023-04-08T12:10:17;4.30;;;3.60;;
56201;SDS011;42117;50.360;3.508;2023-04-08T12:12:43;12.35;;;9.02;;
56201;SDS011;42117;50.360;3.508;2023-04-08T12:15:09;4.90;;;3.25;;
56201;SDS011;42117;50.360;3.508;2023-04-08T12:17:36;5.95;;;3.55;;
56201;SDS011;42117;50.360;3.508;2023-04-08T12:20:03;6.82;;;3.97;;
56201;SDS011;42117;50.360;3.508;2023-04-08T12:22:29;4.90;;;3.67;;
56201;SDS011;42117;50.360;3.508;2023-04-08T12:24:55;5.03;;;3.80;;
56201;SDS011;42117;50.360;3.508;2023-04-08T12:27:21;7.00;;;4.35;;
56201;SDS011;42117;50.360;3.508;2023-04-08T12:29:47;8.43;;;3.83;;
56201;SDS011;42117;50.360;3.508;2023-04-08T12:32:14;4.83;;;3.60;;
56201;SDS011;42117;50.360;3.508;2023-04-08T12:34:40;8.10;;;4.97;;
56201;SDS011;42117;50.360;3.508;2023-04-08T12:37:06;12.23;;;5.63;;
56201;SDS011;42117;50.360;3.508;2023-04-08T12:39:32;10.75;;;4.88;;
56201;SDS011;42117;50.360;3.508;2023-04-08T12:41:58;8.93;;;5.03;;
56201;SDS011;42117;50.360;3.508;2023-04-08T12:44:24;10.68;;;5.50;;
56201;SDS011;42117;50.360;3.508;2023-04-08T12:46:50;8.35;;;4.88;;
56201;SDS011;42117;50.360;3.508;2023-04-08T12:49:16;7.43;;;4.60;;
56201;SDS011;42117;50.360;3.508;2023-04-08T12:51:42;9.45;;;5.32;;
56201;SDS011;42117;50.360;3.508;2023-04-08T12:54:08;9.75;;;5.28;;
56201;SDS011;42117;50.360;3.508;2023-04-08T12:56:34;7.20;;;4.90;;
56201;SDS011;42117;50.360;3.508;2023-04-08T12:59:00;9.40;;;5.13;;
56201;SDS011;42117;50.360;3.508;2023-04-08T13:01:26;8.75;;;5.55;;
56201;SDS011;42117;50.360;3.508;2023-04-08T13:03:52;10.48;;;5.38;;
56201;SDS011;42117;50.360;3.508;2023-04-08T13:06:18;9.18;;;5.30;;
56201;SDS011;42117;50.360;3.508;2023-04-08T13:08:44;10.30;;;5.32;;
56201;SDS011;42117;50.360;3.508;2023-04-08T13:11:11;10.10;;;5.27;;
56201;SDS011;42117;50.360;3.508;2023-04-08T13:13:37;8.13;;;4.93;;
56201;SDS011;42117;50.360;3.508;2023-04-08T13:16:03;6.63;;;5.00;;
56201;SDS011;42117;50.360;3.508;2023-04-08T13:18:29;9.65;;;5.30;;
56201;SDS011;42117;50.360;3.508;2023-04-08T13:20:55;8.98;;;5.05;;
56201;SDS011;42117;50.360;3.508;2023-04-08T13:23:22;9.43;;;5.60;;
56201;SDS011;42117;50.360;3.508;2023-04-08T13:25:48;10.10;;;5.30;;
56201;SDS011;42117;50.360;3.508;2023-04-08T13:28:15;7.30;;;4.90;;
56201;SDS011;42117;50.360;3.508;2023-04-08T13:30:41;9.85;;;5.43;;
56201;SDS011;42117;50.360;3.508;2023-04-08T13:33:07;14.10;;;6.28;;
56201;SDS011;42117;50.360;3.508;2023-04-08T13:35:33;12.73;;;5.97;;
56201;SDS011;42117;50.360;3.508;2023-04-08T13:37:59;12.10;;;6.38;;
56201;SDS011;42117;50.360;3.508;2023-04-08T13:40:25;10.00;;;6.35;;
56201;SDS011;42117;50.360;3.508;2023-04-08T13:42:52;9.27;;;6.10;;
56201;SDS011;42117;50.360;3.508;2023-04-08T13:45:18;10.55;;;5.65;;
56201;SDS011;42117;50.360;3.508;2023-04-08T13:47:44;8.70;;;5.90;;
56201;SDS011;42117;50.360;3.508;2023-04-08T13:50:10;9.35;;;6.50;;
56201;SDS011;42117;50.360;3.508;2023-04-08T13:52:36;11.38;;;6.93;;
56201;SDS011;42117;50.360;3.508;2023-04-08T13:55:02;11.98;;;6.60;;
56201;SDS011;42117;50.360;3.508;2023-04-08T13:57:29;12.48;;;6.75;;
56201;SDS011;42117;50.360;3.508;2023-04-08T13:59:55;12.00;;;6.35;;
56201;SDS011;42117;50.360;3.508;2023-04-08T14:02:21;12.50;;;6.53;;
56201;SDS011;42117;50.360;3.508;2023-04-08T14:04:48;10.88;;;6.95;;
56201;SDS011;42117;50.360;3.508;2023-04-08T14:07:14;12.27;;;6.47;;
56201;SDS011;42117;50.360;3.508;2023-04-08T14:09:40;14.07;;;7.22;;
56201;SDS011;42117;50.360;3.508;2023-04-08T14:12:06;12.80;;;6.45;;
56201;SDS011;42117;50.360;3.508;2023-04-08T14:14:32;11.57;;;6.20;;
56201;SDS011;42117;50.360;3.508;2023-04-08T14:16:58;11.85;;;6.47;;
56201;SDS011;42117;50.360;3.508;2023-04-08T14:19:24;14.02;;;6.78;;
56201;SDS011;42117;50.360;3.508;2023-04-08T14:21:50;13.90;;;6.55;;
56201;SDS011;42117;50.360;3.508;2023-04-08T14:24:16;14.52;;;6.47;;
56201;SDS011;42117;50.360;3.508;2023-04-08T14:26:42;11.30;;;6.55;;
56201;SDS011;42117;50.360;3.508;2023-04-08T14:29:08;10.70;;;5.97;;
56201;SDS011;42117;50.360;3.508;2023-04-08T14:31:34;14.75;;;6.70;;
56201;SDS011;42117;50.360;3.508;2023-04-08T14:34:01;11.98;;;6.57;;
56201;SDS011;42117;50.360;3.508;2023-04-08T14:36:27;10.13;;;5.82;;
56201;SDS011;42117;50.360;3.508;2023-04-08T14:38:54;10.52;;;6.15;;
56201;SDS011;42117;50.360;3.508;2023-04-08T14:41:20;10.00;;;6.10;;
56201;SDS011;42117;50.360;3.508;2023-04-08T14:43:46;14.93;;;7.00;;
56201;SDS011;42117;50.360;3.508;2023-04-08T14:46:13;13.05;;;5.82;;
56201;SDS011;42117;50.360;3.508;2023-04-08T14:48:39;10.13;;;6.03;;
56201;SDS011;42117;50.360;3.508;2023-04-08T14:51:05;13.10;;;6.82;;
56201;SDS011;42117;50.360;3.508;2023-04-08T14:53:31;12.48;;;6.22;;
56201;SDS011;42117;50.360;3.508;2023-04-08T14:55:58;14.88;;;7.15;;